KR-0321 weather

Hanil Ordew Heliport
Busan, Busan Gwang'yeogsi, South Korea

Public forecast

Using degrees Celsius for public forecast. Weather courtesy of forecast.io.

METAR (pilot weather report)

Closest report is Gimhae International Airport, 10.3 nm (19.1 km) W. Retrieved 2019/08/25 00:10 UTC (9 minutes ago):

RKPK 250010Z 36005KT 9999 FEW040 BKN140 BKN200 23/18 Q1014 RMK CIG140

TAF (pilot weather forecast)

Forecast is more than 12 hours old.

Closest forecast is Gimhae International Airport, 10.3 nm (19.1 km) W. Retrieved 2019/08/24 00:00 UTC (1 day ago):

TAF RKPK 242300Z 2500/2606 33006KT 9999 SCT030 BKN200 TX28/2505Z TN20/2520Z BECMG 2503/2504 18008KT BECMG 2511/2512 33006KT BECMG 2602/2603 18008KT